Terminal Aerodrome Forecast
Issued by NWS

Home | Current Version | Previous Version | Text Only | Print | Product List | Glossary On
Versions: 1 2 3 4 5 6 7 8 9 10 11 12 13 14 15 16 17
000
FTUS45 KRIW 262320
TAFCPR
TAF
KCPR 262320Z 2700/2724 23011G17KT P6SM VCSH SCT050 BKN070
     FM270200 02007KT P6SM FEW020 BKN070
     FM270900 23008KT P6SM VCSH SCT030 BKN050
     FM271800 23014G24KT 5SM -RA OVC025
     FM272200 33010G20KT 3SM -RASN OVC015=

USA.gov is the U.S. government's official web portal to all federal, state and local government web resources and services.